Time;durP1;ratioP1;P1;durP2;ratioP2;P2;SDS_P1;SDS_P2;PMS_P1;PMS_P2;Temp;Humidity;BMP_temperature;BMP_pressure;BME280_temperature;BME280_humidity;BME280_pressure;Samples;Min_cycle;Max_cycle;Signal;HPM_P1;HPM_P2
2021/04/16 00:06:20;;;;;;;1.45;0.60;;;3.30;99.90;;;;;;5018628;28;20080;-67
2021/04/16 00:08:52;;;;;;;2.45;0.88;;;3.30;99.90;;;;;;5034704;28;20042;-66
2021/04/16 00:11:26;;;;;;;3.38;0.98;;;3.30;99.90;;;;;;5020641;28;20050;-67
2021/04/16 00:13:54;;;;;;;;;;;3.20;99.90;;;;;;5035106;28;20078;-66
2021/04/16 00:16:50;;;;;;;3.25;0.82;;;3.20;99.90;;;;;;5034776;28;19963;-66
2021/04/16 00:19:16;;;;;;;1.90;0.82;;;3.20;99.90;;;;;;5030751;28;20093;-67
2021/04/16 00:22:07;;;;;;;4.22;0.70;;;3.10;99.90;;;;;;5033372;28;20053;-66
2021/04/16 00:28:55;;;;;;;5.60;0.85;;;3.10;99.90;;;;;;5014457;28;20116;-66
2021/04/16 00:31:30;;;;;;;6.38;1.20;;;3.00;99.90;;;;;;5031494;28;20057;-65
2021/04/16 00:34:01;;;;;;;1.90;0.70;;;3.10;99.90;;;;;;5034218;28;20046;-67
2021/04/16 00:36:29;;;;;;;3.42;1.17;;;3.00;99.90;;;;;;5032865;28;20140;-66
2021/04/16 00:39:02;;;;;;;2.03;0.77;;;3.00;99.90;;;;;;5034277;28;20045;-66
2021/04/16 00:41:29;;;;;;;3.22;0.95;;;3.00;99.90;;;;;;5029576;28;20417;-66
2021/04/16 00:44:00;;;;;;;2.58;0.88;;;2.90;99.90;;;;;;5028903;28;20136;-66
2021/04/16 00:47:13;;;;;;;0.95;0.60;;;2.90;99.90;;;;;;5032787;28;20053;-66
2021/04/16 00:53:58;;;;;;;2.97;0.80;;;2.80;99.90;;;;;;5033368;28;20164;-66
2021/04/16 00:56:30;;;;;;;1.35;0.85;;;2.80;99.90;;;;;;5033871;28;20116;-66
2021/04/16 00:59:01;;;;;;;2.25;0.80;;;2.80;99.90;;;;;;5030483;28;20041;-66
2021/04/16 01:01:29;;;;;;;1.35;0.68;;;2.70;99.90;;;;;;5025233;28;20041;-66
2021/04/16 01:04:04;;;;;;;3.20;1.00;;;2.70;99.90;;;;;;5033591;28;20037;-66
2021/04/16 01:06:43;;;;;;;2.38;0.88;;;2.70;99.90;;;;;;5033782;28;20037;-66
2021/04/16 01:09:43;;;;;;;2.35;1.10;;;2.70;99.90;;;;;;5032727;28;20053;-66
2021/04/16 01:19:55;;;;;;;2.58;0.85;;;2.70;99.90;;;;;;5029201;28;20091;-66
2021/04/16 01:22:35;;;;;;;3.50;0.80;;;2.70;99.90;;;;;;5033404;28;20076;-66
2021/04/16 01:29:05;;;;;;;1.00;0.50;;;2.70;99.90;;;;;;5028950;28;20048;-67
2021/04/16 01:31:49;;;;;;;2.13;0.73;;;2.70;99.90;;;;;;5020863;28;20046;-67
2021/04/16 01:41:37;;;;;;;3.63;0.90;;;2.60;99.90;;;;;;5017325;28;20067;-67
2021/04/16 01:44:28;;;;;;;1.80;0.70;;;4.40;99.90;;;;;;5026673;28;20045;-66
2021/04/16 01:47:20;;;;;;;2.05;0.70;;;2.60;99.90;;;;;;5018775;28;20397;-66
2021/04/16 01:49:50;;;;;;;1.30;0.65;;;2.50;99.90;;;;;;5018041;28;20038;-66
2021/04/16 01:52:57;;;;;;;1.98;0.88;;;2.50;99.90;;;;;;5033370;28;20046;-66
2021/04/16 01:59:19;;;;;;;1.98;0.80;;;2.40;99.90;;;;;;5032142;28;20408;-66
2021/04/16 02:01:45;;;;;;;4.72;0.80;;;2.40;99.90;;;;;;5033054;28;20075;-67
2021/04/16 02:04:19;;;;;;;2.95;0.80;;;2.40;99.90;;;;;;5032928;28;20042;-66
2021/04/16 02:06:50;;;;;;;2.35;1.00;;;2.30;99.90;;;;;;5036322;28;20068;-66
2021/04/16 02:09:38;;;;;;;3.15;1.00;;;2.30;99.90;;;;;;5037334;28;20038;-66
2021/04/16 02:12:18;;;;;;;3.53;0.98;;;2.30;99.90;;;;;;5037106;28;20041;-67
2021/04/16 02:19:05;;;;;;;2.08;0.82;;;2.30;99.90;;;;;;5035875;28;20533;-67
2021/04/16 02:21:56;;;;;;;1.85;0.80;;;2.30;99.90;;;;;;5036451;28;20060;-66
2021/04/16 02:24:35;;;;;;;2.45;0.65;;;2.30;99.90;;;;;;5036667;28;20377;-66
2021/04/16 02:27:19;;;;;;;2.65;0.98;;;2.30;99.90;;;;;;5036543;28;20037;-67
2021/04/16 02:29:51;;;;;;;3.07;0.83;;;2.30;99.90;;;;;;5034329;28;20068;-66
2021/04/16 02:36:38;;;;;;;3.45;0.77;;;2.20;99.90;;;;;;5036325;28;20452;-68
2021/04/16 02:39:13;;;;;;;3.10;0.82;;;2.20;99.90;;;;;;5036680;28;20408;-66
2021/04/16 02:42:22;;;;;;;2.28;1.17;;;2.20;99.90;;;;;;5016755;28;20124;-66
2021/04/16 02:44:54;;;;;;;2.47;0.70;;;2.10;99.90;;;;;;5036674;28;20080;-66
2021/04/16 02:51:42;;;;;;;1.63;0.98;;;2.10;99.90;;;;;;5027281;28;20049;-66
2021/04/16 02:54:13;;;;;;;4.45;1.00;;;2.10;99.90;;;;;;5034171;28;20045;-66
2021/04/16 02:56:42;;;;;;;3.83;0.80;;;2.10;99.90;;;;;;5036049;28;20400;-66
2021/04/16 02:59:44;;;;;;;2.60;0.95;;;2.00;99.90;;;;;;5036137;28;20136;-66
2021/04/16 03:06:40;;;;;;;4.93;0.90;;;2.00;99.90;;;;;;5029800;28;20032;-66
2021/04/16 03:09:12;;;;;;;;;;;2.00;99.90;;;;;;5033608;28;20489;-66
2021/04/16 03:11:46;;;;;;;3.88;0.93;;;2.00;99.90;;;;;;5016902;28;19928;-66
2021/04/16 03:21:45;;;;;;;7.28;1.38;;;2.00;99.90;;;;;;5035586;28;20444;-66
2021/04/16 03:24:20;;;;;;;2.80;1.30;;;1.90;99.90;;;;;;5035736;28;20065;-67
2021/04/16 03:26:48;;;;;;;2.92;1.00;;;1.90;99.90;;;;;;5028068;28;20473;-66
2021/04/16 03:29:34;;;;;;;3.45;1.33;;;2.00;99.90;;;;;;5035415;28;20046;-66
2021/04/16 03:32:12;;;;;;;2.38;0.95;;;1.90;99.90;;;;;;5026389;28;20045;-66
2021/04/16 03:34:42;;;;;;;4.50;1.08;;;1.90;99.90;;;;;;5034280;28;20485;-66
2021/04/16 03:44:16;;;;;;;4.63;1.10;;;1.90;99.90;;;;;;5035385;28;20052;-66
2021/04/16 03:46:50;;;;;;;3.72;1.45;;;1.90;99.90;;;;;;5035556;28;20045;-66
2021/04/16 03:49:18;;;;;;;3.08;0.95;;;1.90;99.90;;;;;;5035154;28;20048;-66
2021/04/16 03:52:03;;;;;;;2.72;0.98;;;1.90;99.90;;;;;;5034982;28;20489;-66
2021/04/16 03:54:50;;;;;;;3.47;1.50;;;1.90;99.90;;;;;;5033519;28;20081;-67
2021/04/16 03:57:20;;;;;;;4.13;1.27;;;1.90;99.90;;;;;;5030976;28;20042;-66
2021/04/16 04:04:17;;;;;;;2.92;1.40;;;1.80;99.90;;;;;;5034896;28;20079;-67
2021/04/16 04:06:50;;;;;;;5.25;1.40;;;1.80;99.90;;;;;;5030502;28;20083;-67
2021/04/16 04:09:18;;;;;;;3.70;1.23;;;1.80;99.90;;;;;;5029355;28;20041;-67
2021/04/16 04:11:50;;;;;;;4.07;1.42;;;1.80;99.90;;;;;;5019376;28;20058;-66
2021/04/16 04:14:30;;;;;;;3.03;1.20;;;1.80;99.90;;;;;;5034962;28;20049;-66
2021/04/16 04:16:59;;;;;;;4.10;1.42;;;1.80;99.90;;;;;;5030816;28;20053;-66
2021/04/16 04:19:35;;;;;;;3.15;1.30;;;1.80;99.90;;;;;;5033175;28;20045;-66
2021/04/16 04:22:05;;;;;;;2.42;1.10;;;1.80;99.90;;;;;;5033357;28;20114;-66
2021/04/16 04:24:40;;;;;;;6.38;1.40;;;1.80;99.90;;;;;;5032242;28;20048;-66
2021/04/16 04:27:13;;;;;;;5.47;1.70;;;1.90;99.90;;;;;;5029353;28;20083;-66
2021/04/16 04:29:42;;;;;;;4.35;1.20;;;1.90;99.90;;;;;;5018692;28;20493;-66
2021/04/16 04:39:43;;;;;;;3.53;1.08;;;1.90;99.90;;;;;;5030696;28;20040;-66
2021/04/16 04:42:20;;;;;;;2.38;1.20;;;2.10;99.90;;;;;;5028582;28;20126;-66
2021/04/16 04:45:11;;;;;;;3.13;0.98;;;1.90;99.90;;;;;;5016625;28;20073;-66
2021/04/16 04:47:46;;;;;;;3.17;1.20;;;1.90;99.90;;;;;;5016773;28;20096;-66
2021/04/16 04:54:32;;;;;;;3.35;0.93;;;1.90;99.90;;;;;;5023838;28;20033;-66
2021/04/16 04:57:02;;;;;;;2.38;1.02;;;1.90;99.90;;;;;;5028853;28;20057;-66
2021/04/16 04:59:53;;;;;;;3.58;1.25;;;1.90;99.90;;;;;;5046743;28;20041;-66
2021/04/16 05:02:22;;;;;;;3.30;1.25;;;2.00;99.90;;;;;;5022984;28;20037;-65
2021/04/16 05:05:00;;;;;;;4.68;1.08;;;2.00;99.90;;;;;;5030291;28;20068;-66
2021/04/16 05:07:32;;;;;;;2.90;1.20;;;2.00;99.90;;;;;;5033832;28;20045;-66
2021/04/16 05:10:08;;;;;;;3.13;0.90;;;2.10;99.90;;;;;;5032627;28;20497;-66
2021/04/16 05:12:36;;;;;;;5.97;1.20;;;2.10;99.90;;;;;;5029199;28;20100;-67
2021/04/16 05:15:39;;;;;;;4.10;1.05;;;2.10;99.90;;;;;;5029193;28;20069;-66
2021/04/16 05:18:17;;;;;;;2.70;0.95;;;2.10;99.90;;;;;;5033727;28;20072;-66
2021/04/16 05:20:43;;;;;;;1.63;0.90;;;2.10;99.90;;;;;;5029676;28;20057;-66
2021/04/16 05:27:33;;;;;;;3.88;0.98;;;2.20;99.90;;;;;;5029948;28;20044;-66
2021/04/16 05:30:06;;;;;;;3.78;1.40;;;2.30;99.90;;;;;;5029425;28;20116;-66
2021/04/16 05:37:02;;;;;;;5.28;1.23;;;2.50;99.90;;;;;;5033540;28;20041;-66
2021/04/16 05:40:03;;;;;;;5.68;1.23;;;2.80;99.90;;;;;;5028388;28;20481;-66
2021/04/16 05:50:07;;;;;;;5.50;1.60;;;3.00;99.90;;;;;;5032990;28;20052;-66
2021/04/16 05:52:39;;;;;;;2.97;1.50;;;3.20;99.90;;;;;;5032926;28;20050;-66
2021/04/16 05:55:12;;;;;;;3.55;1.58;;;3.50;99.90;;;;;;5032013;28;20048;-66
2021/04/16 05:57:38;;;;;;;3.55;1.38;;;3.60;99.90;;;;;;5033052;28;20072;-66
2021/04/16 06:00:11;;;;;;;8.85;1.48;;;3.80;99.90;;;;;;5032918;28;20053;-66
2021/04/16 06:02:43;;;;;;;5.75;1.52;;;3.80;99.90;;;;;;5023306;28;20168;-67
2021/04/16 06:05:46;;;;;;;4.90;0.93;;;3.90;99.90;;;;;;5032884;28;20041;-66
2021/04/16 06:08:20;;;;;;;4.57;1.30;;;4.00;99.90;;;;;;5018515;28;20129;-66
2021/04/16 06:17:42;;;;;;;12.60;2.50;;;4.50;99.90;;;;;;5031870;28;20077;-67
2021/04/16 06:20:10;;;;;;;4.75;1.88;;;4.60;99.90;;;;;;5031560;28;20154;-68
2021/04/16 06:30:15;;;;;;;10.02;2.40;;;4.80;99.90;;;;;;5029906;28;20084;-67
2021/04/16 06:32:58;;;;;;;3.22;1.60;;;4.80;99.90;;;;;;5025424;28;20041;-66
2021/04/16 06:35:57;;;;;;;7.57;3.00;;;5.00;99.90;;;;;;5017488;28;20046;-66
2021/04/16 06:45:25;;;;;;;7.80;2.42;;;5.10;99.90;;;;;;5029225;28;20037;-67
2021/04/16 06:48:28;;;;;;;5.15;1.80;;;5.20;99.90;;;;;;5028765;28;20065;-67
2021/04/16 06:51:00;;;;;;;12.35;3.30;;;5.20;99.90;;;;;;5027816;28;20038;-71
2021/04/16 06:57:46;;;;;;;9.73;2.20;;;5.40;99.90;;;;;;5025086;28;20075;-70
2021/04/16 07:00:39;;;;;;;10.70;1.70;;;5.60;99.90;;;;;;5030204;28;20493;-72
2021/04/16 07:03:36;;;;;;;9.02;3.05;;;5.60;99.90;;;;;;5019418;28;20156;-71
2021/04/16 07:10:19;;;;;;;5.20;1.50;;;5.70;99.90;;;;;;5030925;28;20063;-71
2021/04/16 07:12:52;;;;;;;10.98;2.80;;;5.80;99.90;;;;;;5031735;28;20081;-70
2021/04/16 07:15:50;;;;;;;6.87;2.10;;;5.80;99.90;;;;;;5025901;28;20046;-71
2021/04/16 07:22:48;;;;;;;5.38;2.20;;;6.00;99.90;;;;;;5030315;28;20068;-72
2021/04/16 07:25:45;;;;;;;6.05;2.05;;;6.10;99.90;;;;;;5023796;28;20465;-73
2021/04/16 07:32:50;;;;;;;10.20;2.22;;;6.30;99.90;;;;;;5018899;28;20033;-72
2021/04/16 07:35:48;;;;;;;8.05;1.40;;;6.40;99.90;;;;;;5015669;28;20038;-72
2021/04/16 07:38:30;;;;;;;5.90;1.75;;;6.70;99.90;;;;;;5019808;28;20180;-72
2021/04/16 07:45:17;;;;;;;4.07;1.25;;;6.80;99.90;;;;;;5023964;28;20088;-72
2021/04/16 07:51:39;;;;;;;3.65;1.35;;;7.10;99.90;;;;;;5020567;28;20049;-72
2021/04/16 07:54:48;;;;;;;7.40;2.22;;;7.30;99.90;;;;;;5033714;28;20037;-72
2021/04/16 07:57:26;;;;;;;9.18;1.50;;;7.40;99.90;;;;;;5030920;28;20069;-73
2021/04/16 08:00:33;;;;;;;3.97;1.40;;;7.50;99.90;;;;;;5033989;28;20145;-72
2021/04/16 08:03:31;;;;;;;9.93;4.45;;;7.70;99.90;;;;;;5033667;28;20111;-74
2021/04/16 08:06:27;;;;;;;9.43;3.00;;;7.70;99.90;;;;;;5035356;28;20103;-73
2021/04/16 08:13:04;;;;;;;13.10;7.30;;;8.00;99.90;;;;;;5033785;28;20460;-66
2021/04/16 08:15:32;;;;;;;7.65;2.83;;;8.20;99.90;;;;;;5025298;28;20034;-66
2021/04/16 08:18:11;;;;;;;3.85;1.48;;;8.30;99.90;;;;;;5030147;28;20096;-72
2021/04/16 08:21:06;;;;;;;4.68;2.10;;;8.30;99.90;;;;;;5049133;28;20041;-73
2021/04/16 08:23:44;;;;;;;4.05;1.85;;;8.40;99.90;;;;;;5029255;28;20062;-73
2021/04/16 08:26:22;;;;;;;6.00;0.98;;;8.50;99.90;;;;;;5043434;28;20048;-72
2021/04/16 08:33:13;;;;;;;6.07;2.70;;;8.50;99.90;;;;;;5019982;28;20553;-71
2021/04/16 08:43:25;;;;;;;4.82;1.58;;;8.70;99.90;;;;;;5016862;28;20046;-70
2021/04/16 08:45:59;;;;;;;3.03;1.65;;;8.80;99.90;;;;;;5018249;28;20431;-72
2021/04/16 08:52:57;;;;;;;9.32;3.05;;;8.90;99.90;;;;;;5021217;28;20036;-72
2021/04/16 08:55:31;;;;;;;10.20;3.88;;;9.00;99.90;;;;;;5031731;28;20566;-72
2021/04/16 08:58:01;;;;;;;;;;;9.00;99.90;;;;;;5033993;28;20064;-70
2021/04/16 09:00:37;;;;;;;13.77;4.82;;;9.10;99.90;;;;;;5032900;28;19925;-71
2021/04/16 09:10:41;;;;;;;6.45;2.13;;;9.10;99.90;;;;;;5033084;28;20127;-71
2021/04/16 09:18:06;;;;;;;5.30;1.90;;;9.20;99.90;;;;;;5033344;28;20036;-72
2021/04/16 09:20:39;;;;;;;4.68;1.58;;;9.20;99.90;;;;;;5014310;28;20038;-73
2021/04/16 09:23:27;;;;;;;5.15;2.13;;;9.30;99.90;;;;;;5033579;28;20144;-71
2021/04/16 09:26:03;;;;;;;5.47;1.65;;;9.40;99.90;;;;;;5033256;28;20151;-74
2021/04/16 09:28:51;;;;;;;2.95;1.42;;;9.50;99.90;;;;;;5019370;28;20050;-72
2021/04/16 09:31:44;;;;;;;6.47;2.13;;;9.50;99.90;;;;;;5019669;28;20044;-73
2021/04/16 09:34:21;;;;;;;6.45;2.30;;;9.50;99.90;;;;;;5032645;28;20045;-72
2021/04/16 09:37:16;;;;;;;6.03;1.38;;;9.50;99.90;;;;;;5031920;28;20060;-66
2021/04/16 09:40:38;;;;;;;4.05;1.50;;;9.60;99.90;;;;;;5026659;28;20042;-68
2021/04/16 09:43:11;;;;;;;6.30;1.48;;;9.70;99.90;;;;;;5027446;28;20041;-66
2021/04/16 09:45:51;;;;;;;6.47;2.00;;;9.70;99.90;;;;;;5019188;28;20485;-67
2021/04/16 09:55:57;;;;;;;5.80;1.50;;;9.70;99.90;;;;;;5015745;28;20124;-66
2021/04/16 09:58:49;;;;;;;7.90;1.77;;;9.70;99.90;;;;;;5048336;28;20049;-65
2021/04/16 10:01:59;;;;;;;7.57;1.60;;;9.70;99.90;;;;;;5022399;28;20060;-66
2021/04/16 10:05:02;;;;;;;3.65;1.58;;;9.70;99.90;;;;;;5015780;28;20045;-67
2021/04/16 10:08:16;;;;;;;3.77;1.40;;;9.70;99.90;;;;;;5028623;28;20037;-67
2021/04/16 10:10:52;;;;;;;7.95;1.77;;;9.70;99.90;;;;;;5032400;28;20041;-66
2021/04/16 10:13:29;;;;;;;8.60;1.83;;;9.70;99.90;;;;;;5032722;28;20393;-66
2021/04/16 10:16:29;;;;;;;7.32;2.03;;;9.70;99.90;;;;;;5014513;28;20064;-66
2021/04/16 10:19:10;;;;;;;8.57;1.80;;;9.70;99.90;;;;;;5027582;28;20496;-68
2021/04/16 10:21:38;;;;;;;5.93;1.80;;;9.80;99.90;;;;;;5031842;28;20037;-66
2021/04/16 12:40:08;;;;;;;10.70;2.47;;;10.70;99.90;;;;;;5025673;28;20116;-70
2021/04/16 12:43:28;;;;;;;8.68;3.78;;;10.60;99.90;;;;;;5022621;28;20046;-70
2021/04/16 12:46:01;;;;;;;11.48;2.83;;;10.60;99.90;;;;;;5015422;28;20157;-70
2021/04/16 12:48:34;;;;;;;13.38;2.80;;;10.50;99.90;;;;;;5045004;28;20038;-70
2021/04/16 12:51:00;;;;;;;11.40;2.80;;;10.60;99.90;;;;;;5032956;28;20149;-71
2021/04/16 12:53:28;;;;;;;11.07;3.67;;;10.50;99.90;;;;;;5017373;28;20077;-71
2021/04/16 12:56:34;;;;;;;7.78;2.80;;;10.60;99.90;;;;;;5014621;28;20053;-71
2021/04/16 13:05:57;;;;;;;6.93;2.58;;;10.80;99.90;;;;;;5033887;28;20061;-69
2021/04/16 13:08:32;;;;;;;11.38;4.05;;;10.90;99.90;;;;;;5033327;28;20441;-70
2021/04/16 13:11:04;;;;;;;7.70;3.05;;;10.90;99.90;;;;;;5029326;28;20094;-70
2021/04/16 13:13:29;;;;;;;6.97;2.60;;;10.90;99.90;;;;;;5014177;28;20043;-70
2021/04/16 13:23:35;;;;;;;7.95;2.72;;;11.00;99.90;;;;;;5015971;28;20036;-70
2021/04/16 13:26:08;;;;;;;;;;;11.10;99.90;;;;;;5033913;28;20132;-70
2021/04/16 13:28:36;;;;;;;8.55;2.85;;;11.20;99.90;;;;;;5026151;28;19932;-70
2021/04/16 13:31:10;;;;;;;7.72;2.50;;;11.20;99.90;;;;;;5033195;28;20038;-70
2021/04/16 13:34:11;;;;;;;6.18;1.92;;;11.20;99.90;;;;;;5019461;28;20049;-72
2021/04/16 13:36:43;;;;;;;6.55;2.22;;;11.20;99.90;;;;;;5028855;28;20042;-72
2021/04/16 13:39:10;;;;;;;7.15;1.92;;;11.20;99.90;;;;;;5018041;28;20052;-72
2021/04/16 13:41:43;;;;;;;5.53;1.70;;;11.20;99.90;;;;;;5032707;28;20042;-71
2021/04/16 13:44:20;;;;;;;2.58;0.90;;;11.30;98.80;;;;;;5033003;28;20434;-65
2021/04/16 13:46:49;;;;;;;2.63;1.27;;;11.30;89.80;;;;;;5026784;28;20053;-66
2021/04/16 13:49:35;;;;;;;3.72;1.15;;;11.40;95.60;;;;;;5030667;28;20045;-70
2021/04/16 13:56:01;;;;;;;3.95;1.15;;;11.60;97.30;;;;;;5025990;28;20032;-70
2021/04/16 13:58:42;;;;;;;5.22;1.40;;;11.60;92.40;;;;;;5033233;28;20103;-70
2021/04/16 14:01:17;;;;;;;4.65;1.45;;;11.60;93.50;;;;;;5026309;28;20046;-70
2021/04/16 14:03:46;;;;;;;4.28;1.20;;;11.50;85.80;;;;;;5035176;28;20184;-69
2021/04/16 14:06:40;;;;;;;3.15;1.27;;;11.40;89.00;;;;;;5034775;28;20504;-72
2021/04/16 14:09:17;;;;;;;4.93;1.52;;;11.30;77.30;;;;;;5037102;28;20049;-71
2021/04/16 14:11:55;;;;;;;1.50;0.70;;;11.40;80.40;;;;;;5036981;28;20045;-69
2021/04/16 14:18:41;;;;;;;2.40;1.15;;;11.40;70.30;;;;;;5034492;28;20037;-70
2021/04/16 14:21:17;;;;;;;3.00;1.00;;;11.30;65.00;;;;;;5036879;28;20481;-71
2021/04/16 14:23:43;;;;;;;1.85;0.80;;;11.30;64.80;;;;;;5033157;28;20392;-70
2021/04/16 14:26:09;;;;;;;2.15;0.80;;;11.30;61.80;;;;;;5036347;28;20045;-68
2021/04/16 14:28:43;;;;;;;1.80;0.98;;;11.30;67.90;;;;;;5036540;28;20464;-70
2021/04/16 14:31:13;;;;;;;3.92;0.73;;;11.40;59.10;;;;;;5021329;28;20446;-69
2021/04/16 14:33:42;;;;;;;2.50;1.05;;;11.30;57.90;;;;;;5024722;28;20045;-70
2021/04/16 14:36:27;;;;;;;3.75;0.98;;;11.30;62.60;;;;;;5036524;28;20502;-70
2021/04/16 14:39:06;;;;;;;2.13;0.88;;;11.30;63.90;;;;;;5036498;28;20041;-70
2021/04/16 14:41:39;;;;;;;3.08;1.10;;;11.40;62.60;;;;;;5034117;28;20049;-70
2021/04/16 14:44:17;;;;;;;5.18;1.10;;;11.40;57.60;;;;;;5036655;28;20451;-71
2021/04/16 14:51:12;;;;;;;1.88;1.05;;;11.50;63.30;;;;;;5036125;28;20510;-71
2021/04/16 15:01:10;;;;;;;4.47;1.27;;;11.40;67.20;;;;;;5035711;28;20036;-70
2021/04/16 15:03:39;;;;;;;2.28;1.00;;;11.20;66.50;;;;;;5036206;28;20413;-71
2021/04/16 15:06:13;;;;;;;8.57;1.90;;;11.30;69.60;;;;;;5036246;28;20049;-72
2021/04/16 15:12:43;;;;;;;6.57;1.67;;;11.20;80.70;;;;;;5031366;28;20064;-73
2021/04/16 15:15:37;;;;;;;3.88;1.40;;;11.20;92.10;;;;;;5030048;28;20046;-69
2021/04/16 15:18:33;;;;;;;4.90;1.52;;;11.10;89.20;;;;;;5012041;28;20112;-68
2021/04/16 15:21:07;;;;;;;8.30;1.63;;;11.10;88.90;;;;;;5034551;28;20049;-67
2021/04/16 15:28:26;;;;;;;5.82;2.13;;;11.00;99.00;;;;;;5018384;28;20087;-67
2021/04/16 15:50:58;;;;;;;5.35;2.28;;;10.80;95.00;;;;;;5024485;28;20503;-67
2021/04/16 15:53:30;;;;;;;6.28;2.35;;;10.80;96.30;;;;;;5030431;28;20045;-68
2021/04/16 15:56:07;;;;;;;6.45;2.58;;;10.80;98.70;;;;;;5035155;28;20050;-67
2021/04/16 15:58:37;;;;;;;9.88;2.97;;;10.80;99.70;;;;;;5030894;28;20103;-67
2021/04/16 16:01:06;;;;;;;4.97;2.35;;;10.80;98.80;;;;;;5032847;28;20099;-67
2021/04/16 16:04:11;;;;;;;6.63;3.17;;;10.70;98.60;;;;;;5035674;28;20045;-67
2021/04/16 16:06:47;;;;;;;5.60;2.58;;;10.60;99.90;;;;;;5033232;28;20405;-67
2021/04/16 16:13:39;;;;;;;7.60;2.90;;;10.50;99.90;;;;;;5028476;28;20083;-66
2021/04/16 16:16:16;;;;;;;6.10;2.92;;;10.40;99.90;;;;;;5033534;28;20064;-66
2021/04/16 16:19:11;;;;;;;8.88;3.20;;;10.40;99.90;;;;;;5034524;28;20049;-66
2021/04/16 16:21:46;;;;;;;6.45;3.05;;;10.40;99.90;;;;;;5026244;28;20045;-67
2021/04/16 16:24:14;;;;;;;6.90;2.60;;;10.30;99.90;;;;;;5034577;28;20076;-67
2021/04/16 16:26:46;;;;;;;6.95;3.05;;;10.20;99.90;;;;;;5033898;28;20190;-67
2021/04/16 16:29:32;;;;;;;8.55;2.75;;;10.20;99.90;;;;;;5034219;28;20100;-67
2021/04/16 16:36:53;;;;;;;8.27;2.75;;;10.10;99.90;;;;;;5034112;28;20032;-67
2021/04/16 16:44:09;;;;;;;7.68;2.97;;;9.90;99.90;;;;;;5031039;28;20048;-67
2021/04/16 16:46:40;;;;;;;7.95;3.10;;;9.80;99.90;;;;;;5019127;28;20041;-67
2021/04/16 16:49:12;;;;;;;6.47;2.63;;;9.80;99.90;;;;;;5028511;28;20049;-67
2021/04/16 16:51:39;;;;;;;6.90;2.60;;;9.80;99.90;;;;;;5024370;28;20046;-67
2021/04/16 16:54:07;;;;;;;4.53;2.42;;;9.80;99.90;;;;;;5032095;28;20111;-67
2021/04/16 16:56:40;;;;;;;7.35;2.75;;;9.70;99.90;;;;;;5033416;28;20527;-67
2021/04/16 16:59:16;;;;;;;7.57;3.58;;;9.60;99.90;;;;;;5020493;28;20046;-67
2021/04/16 17:01:42;;;;;;;9.90;3.28;;;9.60;99.90;;;;;;5020519;28;20478;-67
2021/04/16 17:04:16;;;;;;;6.18;2.70;;;9.50;99.90;;;;;;5034002;28;20041;-67
2021/04/16 17:06:42;;;;;;;6.65;3.00;;;9.50;99.90;;;;;;5017238;28;20045;-67
2021/04/16 17:09:14;;;;;;;9.60;2.80;;;9.50;99.90;;;;;;5031491;28;20033;-70
2021/04/16 17:12:30;;;;;;;10.77;3.78;;;9.50;99.90;;;;;;5033602;28;20099;-70
2021/04/16 17:15:04;;;;;;;5.65;2.75;;;9.50;99.90;;;;;;5021244;28;20042;-70
2021/04/16 17:17:36;;;;;;;6.22;2.67;;;9.50;99.90;;;;;;5014205;28;20093;-70
2021/04/16 17:20:04;;;;;;;7.15;2.63;;;9.40;99.90;;;;;;5017094;28;20070;-72
2021/04/16 17:22:37;;;;;;;6.25;3.08;;;9.30;99.90;;;;;;5019389;28;20068;-73
2021/04/16 17:25:37;;;;;;;11.32;4.15;;;9.40;99.90;;;;;;5032246;28;20054;-72
2021/04/16 17:28:17;;;;;;;7.10;2.95;;;9.20;99.90;;;;;;5033084;28;20103;-70
2021/04/16 17:30:45;;;;;;;8.98;3.13;;;9.30;99.90;;;;;;5027207;28;20401;-71
2021/04/16 17:33:19;;;;;;;5.18;2.85;;;9.10;99.90;;;;;;5019015;28;20116;-71
2021/04/16 17:35:46;;;;;;;4.75;2.45;;;9.10;99.90;;;;;;5029628;28;20046;-70
2021/04/16 17:38:37;;;;;;;7.72;3.20;;;9.10;99.90;;;;;;5027322;28;20042;-70
2021/04/16 17:41:30;;;;;;;7.03;2.92;;;9.10;99.90;;;;;;5014563;28;20057;-69
2021/04/16 17:47:30;;;;;;;9.98;3.47;;;8.90;99.90;;;;;;5031148;28;20096;-69
2021/04/16 17:50:04;;;;;;;6.53;3.28;;;8.80;99.90;;;;;;5030233;28;20435;-68
2021/04/16 17:52:37;;;;;;;8.82;3.40;;;8.80;99.90;;;;;;5033308;28;20124;-70
2021/04/16 17:55:26;;;;;;;6.88;3.47;;;8.80;99.90;;;;;;5018792;28;20207;-70
2021/04/16 17:58:04;;;;;;;10.85;2.80;;;8.70;99.90;;;;;;5031259;28;20046;-70
2021/04/16 18:00:49;;;;;;;8.40;3.53;;;8.60;99.90;;;;;;5027566;28;20142;-69
2021/04/16 18:03:29;;;;;;;5.97;3.17;;;8.60;99.90;;;;;;5031805;28;20077;-70
2021/04/16 18:10:03;;;;;;;7.13;3.47;;;8.30;99.90;;;;;;5023355;28;20045;-69
2021/04/16 18:20:32;;;;;;;8.18;3.08;;;7.90;99.90;;;;;;5032791;28;20484;-69
2021/04/16 18:27:41;;;;;;;11.27;4.13;;;7.80;99.90;;;;;;5026917;28;20037;-69
2021/04/16 18:30:32;;;;;;;7.60;3.33;;;7.70;99.90;;;;;;5032745;28;20465;-69
2021/04/16 18:33:17;;;;;;;12.75;3.78;;;7.60;99.90;;;;;;5029772;28;20071;-69
2021/04/16 18:40:05;;;;;;;9.63;3.25;;;7.40;99.90;;;;;;5032565;28;20037;-69
2021/04/16 18:50:07;;;;;;;7.30;3.65;;;7.30;99.90;;;;;;5036429;28;20080;-70
2021/04/16 18:52:37;;;;;;;11.73;4.57;;;7.20;99.90;;;;;;5036075;28;20501;-70
2021/04/16 18:55:33;;;;;;;9.05;3.65;;;7.10;99.90;;;;;;5032060;28;20078;-69
2021/04/16 18:58:13;;;;;;;9.20;3.08;;;7.00;99.90;;;;;;5033449;28;20515;-69
2021/04/16 19:00:49;;;;;;;9.77;3.13;;;6.90;99.90;;;;;;5029034;28;20044;-69
2021/04/16 19:07:33;;;;;;;9.32;3.28;;;6.80;99.90;;;;;;5031514;28;20392;-69
2021/04/16 19:13:53;;;;;;;6.57;3.20;;;6.70;99.90;;;;;;5024059;28;20393;-70
2021/04/16 19:20:07;;;;;;;6.22;2.72;;;6.60;99.90;;;;;;5035198;28;20231;-69
2021/04/16 19:22:39;;;;;;;11.35;3.05;;;6.60;99.90;;;;;;5035637;28;20456;-69
2021/04/16 19:25:16;;;;;;;8.82;2.90;;;6.50;99.90;;;;;;5016581;28;20401;-69
2021/04/16 19:28:07;;;;;;;7.05;2.88;;;6.50;99.90;;;;;;5051232;28;20064;-69
2021/04/16 19:31:04;;;;;;;11.27;2.88;;;6.40;99.90;;;;;;5021753;28;20046;-72
2021/04/16 19:33:45;;;;;;;3.97;2.15;;;6.40;99.90;;;;;;5033855;28;20037;-70
2021/04/16 19:36:31;;;;;;;9.18;3.35;;;6.30;99.90;;;;;;5025226;28;20045;-71
2021/04/16 19:42:34;;;;;;;8.50;2.83;;;6.20;99.90;;;;;;5029783;28;20129;-69
2021/04/16 20:20:11;;;;;;;21.48;7.90;;;5.90;99.90;;;;;;5022166;28;20045;-67
2021/04/16 20:22:53;;;;;;;4.07;1.80;;;5.80;99.90;;;;;;5030740;28;20100;-67
2021/04/16 20:28:59;;;;;;;4.57;2.00;;;5.70;99.90;;;;;;5023268;28;20056;-67
2021/04/16 20:35:25;;;;;;;5.50;2.30;;;5.70;99.90;;;;;;5034598;28;20056;-67
2021/04/16 20:38:08;;;;;;;4.43;1.77;;;5.60;99.90;;;;;;5031472;28;20038;-67
2021/04/16 20:40:49;;;;;;;4.15;1.77;;;5.60;99.90;;;;;;5033576;28;20053;-67
2021/04/16 20:43:26;;;;;;;4.72;1.90;;;5.60;99.90;;;;;;5027860;28;20045;-67
2021/04/16 20:46:01;;;;;;;8.10;2.00;;;5.60;99.90;;;;;;5024668;28;20409;-68
2021/04/16 20:52:47;;;;;;;10.85;3.15;;;5.50;99.90;;;;;;5029267;28;20037;-67
2021/04/16 20:55:23;;;;;;;9.70;4.07;;;5.50;99.90;;;;;;5034189;28;20053;-68
2021/04/16 20:58:17;;;;;;;10.20;3.85;;;5.50;99.90;;;;;;5033715;28;20051;-67
2021/04/16 21:04:32;;;;;;;7.20;3.55;;;5.50;99.90;;;;;;5025168;28;20176;-68
2021/04/16 21:07:47;;;;;;;10.70;3.70;;;5.50;99.90;;;;;;5033719;28;20116;-67
2021/04/16 21:10:22;;;;;;;7.05;3.17;;;5.50;99.90;;;;;;5033591;28;20519;-66
2021/04/16 21:12:49;;;;;;;13.75;4.07;;;5.50;99.90;;;;;;5033241;28;20053;-68
2021/04/16 21:15:38;;;;;;;11.23;3.70;;;5.40;99.90;;;;;;5030089;28;20045;-68
2021/04/16 21:18:29;;;;;;;9.57;3.80;;;5.40;99.90;;;;;;5016755;28;20069;-68
2021/04/16 21:21:12;;;;;;;5.38;2.65;;;5.30;99.90;;;;;;5031443;28;20046;-67
2021/04/16 21:27:47;;;;;;;3.25;1.27;;;5.20;99.90;;;;;;5033243;28;20036;-67
2021/04/16 21:30:20;;;;;;;3.97;2.15;;;5.20;99.90;;;;;;5031783;28;20065;-68
2021/04/16 21:40:20;;;;;;;5.57;2.13;;;5.10;99.90;;;;;;5027679;28;20053;-69
2021/04/16 21:43:02;;;;;;;9.90;2.00;;;5.10;99.90;;;;;;5033269;28;20496;-69
2021/04/16 21:52:58;;;;;;;10.27;2.00;;;5.00;99.90;;;;;;5013707;28;20045;-70
2021/04/16 21:55:26;;;;;;;5.10;2.47;;;5.10;99.90;;;;;;5033349;28;20136;-69
2021/04/16 21:58:02;;;;;;;6.15;1.80;;;5.10;99.90;;;;;;5033098;28;20042;-70
2021/04/16 22:00:35;;;;;;;5.55;1.70;;;5.10;99.90;;;;;;5032166;28;20049;-67
2021/04/16 22:09:56;;;;;;;5.57;1.90;;;5.10;99.90;;;;;;5032537;28;20132;-68
2021/04/16 22:12:53;;;;;;;4.32;1.67;;;5.00;99.90;;;;;;5031781;28;20060;-68
2021/04/16 22:15:29;;;;;;;5.90;2.40;;;5.00;99.90;;;;;;5032991;28;20048;-67
2021/04/16 22:18:24;;;;;;;8.57;2.92;;;5.10;99.90;;;;;;5032808;28;20050;-69
2021/04/16 22:21:13;;;;;;;11.07;3.47;;;5.10;99.90;;;;;;5031761;28;20056;-68
2021/04/16 22:27:53;;;;;;;5.95;2.83;;;5.00;99.90;;;;;;5036386;28;20060;-67
2021/04/16 22:30:26;;;;;;;6.95;2.47;;;5.00;99.90;;;;;;5032268;28;20551;-67
2021/04/16 22:33:00;;;;;;;8.07;2.65;;;5.00;99.90;;;;;;5036254;28;20041;-67
2021/04/16 22:42:53;;;;;;;6.32;2.92;;;5.00;99.90;;;;;;5033592;28;20396;-67
2021/04/16 22:45:34;;;;;;;7.05;2.92;;;5.00;99.90;;;;;;5033659;28;20048;-67
2021/04/16 22:48:20;;;;;;;4.53;2.15;;;5.00;99.90;;;;;;5024087;28;20046;-67